Time;durP1;ratioP1;P1;durP2;ratioP2;P2;SDS_P1;SDS_P2;PMS_P1;PMS_P2;Temp;Humidity;BMP_temperature;BMP_pressure;BME280_temperature;BME280_humidity;BME280_pressure;Samples;Min_cycle;Max_cycle;Signal;HPM_P1;HPM_P2
2023/03/21 00:01:55;;;;;;;9.73;5.30;;;13.40;99.90;;;;;;5046836;28;20232;-31
2023/03/21 00:04:25;;;;;;;11.00;5.60;;;13.40;99.90;;;;;;5047269;28;20200;-31
2023/03/21 00:06:58;;;;;;;11.43;5.33;;;13.40;99.90;;;;;;5046095;28;20569;-31
2023/03/21 00:09:25;;;;;;;11.50;5.80;;;13.40;99.90;;;;;;5045570;28;20691;-31
2023/03/21 00:11:55;;;;;;;10.97;5.73;;;13.40;99.90;;;;;;5061994;28;20778;-30
2023/03/21 00:14:24;;;;;;;10.80;5.83;;;13.40;99.90;;;;;;5045503;28;20704;-30
2023/03/21 00:16:52;;;;;;;9.77;5.17;;;13.40;99.90;;;;;;5062018;28;20200;-31
2023/03/21 00:19:25;;;;;;;9.60;5.60;;;13.40;99.90;;;;;;5046836;28;20551;-31
2023/03/21 00:21:55;;;;;;;8.00;5.27;;;13.40;99.90;;;;;;5046972;28;20299;-30
2023/03/21 00:24:39;;;;;;;10.37;5.17;;;13.40;99.90;;;;;;5046813;28;20255;-31
2023/03/21 00:27:08;;;;;;;9.83;4.97;;;13.40;99.90;;;;;;5045709;28;20215;-30
2023/03/21 00:29:55;;;;;;;11.00;5.30;;;13.40;99.90;;;;;;5059599;28;20580;-31
2023/03/21 00:32:25;;;;;;;8.40;4.80;;;13.40;99.90;;;;;;5046683;28;20197;-30
2023/03/21 00:34:55;;;;;;;10.63;5.43;;;13.30;99.90;;;;;;5045230;28;20212;-31
2023/03/21 00:37:56;;;;;;;8.13;5.20;;;13.30;99.90;;;;;;5047170;28;20204;-31
2023/03/21 00:40:23;;;;;;;11.13;5.20;;;13.30;99.90;;;;;;5046573;28;20405;-31
2023/03/21 00:43:01;;;;;;;8.87;4.90;;;13.30;99.90;;;;;;5046612;28;20220;-31
2023/03/21 00:45:33;;;;;;;9.03;4.87;;;13.30;99.90;;;;;;5045266;28;20266;-31
2023/03/21 00:48:01;;;;;;;10.70;4.97;;;13.30;99.90;;;;;;5060720;28;20291;-31
2023/03/21 00:50:33;;;;;;;12.87;5.33;;;13.30;99.90;;;;;;5061013;28;20204;-31
2023/03/21 00:53:00;;;;;;;9.77;4.97;;;13.30;99.90;;;;;;5045684;28;20287;-31
2023/03/21 00:55:30;;;;;;;8.23;5.43;;;13.30;99.90;;;;;;5046340;28;20327;-31
2023/03/21 00:58:02;;;;;;;11.70;5.27;;;13.30;99.90;;;;;;5045129;28;20220;-31
2023/03/21 01:00:32;;;;;;;9.50;4.77;;;13.30;99.90;;;;;;5044646;28;20590;-31
2023/03/21 01:03:04;;;;;;;8.60;4.40;;;13.30;99.90;;;;;;5054189;28;20215;-31
2023/03/21 01:06:03;;;;;;;8.97;5.60;;;13.30;99.90;;;;;;5046351;28;20199;-31
2023/03/21 01:08:38;;;;;;;8.90;4.57;;;13.30;99.90;;;;;;5044254;28;20200;-32
2023/03/21 01:11:24;;;;;;;8.37;5.20;;;13.30;99.90;;;;;;5045710;28;20196;-31
2023/03/21 01:13:55;;;;;;;8.73;4.93;;;13.30;99.90;;;;;;5045964;28;20318;-31
2023/03/21 01:16:43;;;;;;;8.20;4.67;;;13.30;99.90;;;;;;5045431;28;20200;-31
2023/03/21 01:19:16;;;;;;;9.17;5.20;;;13.20;99.90;;;;;;5045841;28;20204;-31
2023/03/21 01:21:56;;;;;;;8.40;5.03;;;13.30;99.90;;;;;;5044090;28;20234;-31
2023/03/21 01:24:31;;;;;;;7.47;4.47;;;13.30;99.90;;;;;;5044476;28;20727;-31
2023/03/21 01:27:03;;;;;;;9.17;4.70;;;13.30;99.90;;;;;;5046096;28;20675;-32
2023/03/21 01:29:31;;;;;;;7.47;4.20;;;13.30;99.90;;;;;;5044104;28;20679;-32
2023/03/21 01:32:00;;;;;;;9.73;4.90;;;13.30;99.90;;;;;;5045719;28;20223;-31
2023/03/21 01:34:30;;;;;;;9.27;4.63;;;13.30;99.90;;;;;;5044185;28;20273;-31
2023/03/21 01:37:00;;;;;;;8.07;4.10;;;13.20;99.90;;;;;;5045540;28;20255;-30
2023/03/21 01:39:33;;;;;;;6.63;4.53;;;13.20;99.90;;;;;;5045297;28;20220;-31
2023/03/21 01:42:03;;;;;;;8.17;4.20;;;13.30;99.90;;;;;;5044157;28;20722;-31
2023/03/21 01:44:30;;;;;;;7.10;4.30;;;13.20;99.90;;;;;;5027927;28;20207;-30
2023/03/21 01:47:00;;;;;;;6.37;4.27;;;13.30;99.90;;;;;;5045210;28;20219;-31
2023/03/21 01:49:46;;;;;;;7.47;4.07;;;13.20;99.90;;;;;;5045318;28;20215;-31
2023/03/21 01:52:22;;;;;;;7.57;3.93;;;13.20;99.90;;;;;;5045102;28;20703;-31
2023/03/21 01:55:10;;;;;;;5.65;4.47;;;13.20;99.90;;;;;;5045352;28;20271;-31
2023/03/21 01:57:52;;;;;;;10.40;4.80;;;13.20;99.90;;;;;;5029236;28;20710;-31
2023/03/21 02:00:32;;;;;;;7.90;4.53;;;13.20;99.90;;;;;;5043012;28;20197;-31
2023/03/21 02:03:02;;;;;;;8.97;4.50;;;13.20;99.90;;;;;;5048773;28;20270;-30
2023/03/21 02:05:54;;;;;;;8.83;4.97;;;13.20;99.90;;;;;;5048851;28;20216;-31
2023/03/21 02:08:24;;;;;;;8.67;4.77;;;13.20;99.90;;;;;;5048664;28;20208;-32
2023/03/21 02:11:08;;;;;;;9.03;4.90;;;13.20;99.90;;;;;;5047425;28;20196;-31
2023/03/21 02:13:40;;;;;;;9.00;5.00;;;13.20;99.90;;;;;;5048467;28;20597;-31
2023/03/21 02:16:43;;;;;;;9.53;4.90;;;13.30;99.90;;;;;;5046821;28;20270;-31
2023/03/21 02:19:44;;;;;;;8.87;4.57;;;13.20;99.90;;;;;;5041563;28;20203;-30
2023/03/21 02:22:31;;;;;;;11.57;4.97;;;13.20;99.90;;;;;;5048663;28;20228;-31
2023/03/21 02:25:48;;;;;;;12.40;5.27;;;13.20;99.90;;;;;;5048343;28;20216;-31
2023/03/21 02:28:18;;;;;;;9.87;5.03;;;13.20;99.90;;;;;;5012438;28;20226;-31
2023/03/21 02:31:25;;;;;;;8.30;4.50;;;13.20;99.90;;;;;;5046850;28;20788;-31
2023/03/21 02:34:14;;;;;;;10.77;5.07;;;13.20;99.90;;;;;;5036409;28;20208;-33
2023/03/21 02:36:47;;;;;;;10.67;5.00;;;13.20;99.90;;;;;;5046761;28;20212;-31
2023/03/21 02:39:25;;;;;;;9.67;5.03;;;13.20;99.90;;;;;;5048762;28;20232;-31
2023/03/21 02:42:01;;;;;;;10.73;4.80;;;13.20;99.90;;;;;;5048115;28;20562;-31
2023/03/21 02:44:52;;;;;;;11.43;5.10;;;13.20;99.90;;;;;;5048163;28;20639;-31
2023/03/21 02:47:54;;;;;;;8.97;4.57;;;13.30;99.90;;;;;;5047091;28;20572;-31
2023/03/21 02:50:42;;;;;;;10.37;4.77;;;13.30;99.90;;;;;;5045129;28;20538;-31
2023/03/21 02:53:18;;;;;;;9.30;4.73;;;13.30;99.90;;;;;;5048214;28;20691;-31
2023/03/21 02:55:49;;;;;;;11.47;4.67;;;13.30;99.90;;;;;;5046300;28;20851;-31
2023/03/21 02:58:20;;;;;;;9.17;5.43;;;13.30;99.90;;;;;;5047842;28;20687;-31
2023/03/21 03:00:54;;;;;;;9.30;4.37;;;13.30;99.90;;;;;;5047635;28;20223;-31
2023/03/21 03:03:26;;;;;;;9.13;4.50;;;13.30;99.90;;;;;;5046281;28;20337;-31
2023/03/21 03:06:15;;;;;;;12.90;5.63;;;13.30;99.90;;;;;;5048331;28;20620;-31
2023/03/21 03:09:16;;;;;;;7.47;4.13;;;13.30;99.90;;;;;;5046030;28;20216;-31
2023/03/21 03:11:48;;;;;;;7.63;4.13;;;13.40;99.90;;;;;;5047853;28;20206;-31
2023/03/21 03:14:54;;;;;;;11.30;4.70;;;13.40;99.90;;;;;;5047636;28;20234;-31
2023/03/21 03:17:54;;;;;;;9.23;4.93;;;13.40;99.90;;;;;;5046378;28;20713;-31
2023/03/21 03:20:54;;;;;;;9.33;4.30;;;13.40;99.90;;;;;;5048072;28;20223;-31
2023/03/21 03:23:56;;;;;;;11.80;4.60;;;13.40;99.90;;;;;;5046240;28;20235;-31
2023/03/21 03:26:35;;;;;;;9.33;4.47;;;13.30;99.90;;;;;;4985316;28;20198;-30
2023/03/21 03:29:10;;;;;;;8.23;3.70;;;13.40;99.90;;;;;;5040368;28;20236;-31
2023/03/21 03:31:43;;;;;;;7.97;4.20;;;13.40;99.90;;;;;;5047233;28;20230;-31
2023/03/21 03:34:19;;;;;;;10.07;4.40;;;13.40;99.90;;;;;;5045499;28;20211;-31
2023/03/21 03:36:55;;;;;;;7.87;3.80;;;13.40;99.90;;;;;;5047433;28;20230;-31
2023/03/21 03:39:34;;;;;;;7.17;3.77;;;13.30;99.90;;;;;;5047255;28;20207;-31
2023/03/21 03:42:15;;;;;;;9.43;4.23;;;13.40;99.90;;;;;;5045855;28;20219;-31
2023/03/21 03:44:59;;;;;;;8.00;3.70;;;13.40;99.90;;;;;;5046995;28;20196;-31
2023/03/21 03:47:39;;;;;;;8.53;3.83;;;13.40;99.90;;;;;;5045344;28;20209;-31
2023/03/21 03:50:28;;;;;;;7.37;3.60;;;13.40;99.90;;;;;;5045455;28;20216;-31
2023/03/21 03:53:08;;;;;;;6.27;2.97;;;13.40;99.90;;;;;;5045275;28;20200;-31
2023/03/21 03:55:48;;;;;;;10.20;3.80;;;13.40;99.90;;;;;;5046947;28;20637;-30
2023/03/21 03:58:19;;;;;;;7.57;3.40;;;13.40;99.90;;;;;;5046678;28;20216;-31
2023/03/21 04:00:55;;;;;;;7.20;2.90;;;13.40;99.90;;;;;;5046731;28;20737;-31
2023/03/21 04:03:27;;;;;;;6.03;2.93;;;13.40;99.90;;;;;;5044873;28;20293;-31
2023/03/21 04:06:05;;;;;;;6.73;3.53;;;13.40;99.90;;;;;;5046664;28;20532;-31
2023/03/21 04:08:32;;;;;;;7.30;3.03;;;13.40;99.90;;;;;;5028676;28;20307;-31
2023/03/21 04:11:01;;;;;;;6.47;3.00;;;13.40;99.90;;;;;;5046686;28;20705;-32
2023/03/21 04:13:35;;;;;;;7.37;3.10;;;13.50;99.90;;;;;;5045438;28;20208;-32
2023/03/21 04:16:03;;;;;;;9.00;3.30;;;13.50;99.90;;;;;;5046261;28;20655;-30
2023/03/21 04:18:37;;;;;;;7.93;3.93;;;13.50;99.90;;;;;;5046586;28;20258;-31
2023/03/21 04:21:09;;;;;;;8.80;3.60;;;13.50;99.90;;;;;;5045702;28;20578;-32
2023/03/21 04:23:37;;;;;;;7.43;4.57;;;13.50;99.90;;;;;;5044682;28;20257;-31
2023/03/21 04:26:07;;;;;;;10.50;3.77;;;13.50;99.90;;;;;;5046089;28;20216;-31
2023/03/21 04:28:37;;;;;;;9.43;4.37;;;13.50;99.90;;;;;;5046119;28;20194;-30
2023/03/21 04:31:09;;;;;;;7.93;4.33;;;13.50;99.90;;;;;;5044670;28;20196;-32
2023/03/21 04:33:54;;;;;;;8.23;4.27;;;13.50;99.90;;;;;;5046616;28;20281;-31
2023/03/21 04:36:31;;;;;;;10.63;5.03;;;13.50;99.90;;;;;;5046045;28;20215;-31
2023/03/21 04:39:03;;;;;;;10.10;4.60;;;13.50;99.90;;;;;;5046135;28;20195;-30
2023/03/21 04:41:33;;;;;;;10.53;5.27;;;13.50;99.90;;;;;;5044388;28;20199;-31
2023/03/21 04:44:00;;;;;;;10.83;5.33;;;13.50;99.90;;;;;;5044287;28;20762;-31
2023/03/21 04:46:28;;;;;;;10.07;5.03;;;13.50;99.90;;;;;;5044614;28;20211;-31
2023/03/21 04:48:55;;;;;;;11.37;4.90;;;13.50;99.90;;;;;;5028162;28;20204;-31
2023/03/21 04:51:22;;;;;;;9.60;5.60;;;13.60;99.90;;;;;;5045880;28;20619;-31
2023/03/21 04:53:56;;;;;;;13.83;5.63;;;13.60;99.90;;;;;;5045887;28;20227;-31
2023/03/21 04:56:31;;;;;;;13.03;5.53;;;13.60;99.90;;;;;;5046163;28;20596;-31
2023/03/21 04:59:00;;;;;;;8.50;5.00;;;13.60;99.90;;;;;;5046042;28;20200;-31
2023/03/21 05:01:32;;;;;;;13.60;5.83;;;13.60;99.90;;;;;;5044192;28;20235;-31
2023/03/21 05:04:02;;;;;;;9.97;5.43;;;13.60;99.90;;;;;;5046069;28;20261;-31
2023/03/21 05:06:35;;;;;;;6.57;4.73;;;13.60;99.90;;;;;;5046123;28;20200;-31
2023/03/21 05:09:05;;;;;;;13.17;5.57;;;13.60;99.90;;;;;;5044645;28;20626;-31
2023/03/21 05:11:36;;;;;;;10.13;5.47;;;13.60;99.90;;;;;;5044746;28;20273;-31
2023/03/21 05:14:08;;;;;;;12.07;5.30;;;13.60;99.90;;;;;;5046120;28;20240;-31
2023/03/21 05:16:37;;;;;;;11.23;5.80;;;13.60;99.90;;;;;;5046672;28;20220;-31
2023/03/21 05:19:12;;;;;;;10.77;5.10;;;13.60;99.90;;;;;;5046132;28;20203;-31
2023/03/21 05:21:40;;;;;;;12.03;5.83;;;13.60;99.90;;;;;;5046257;28;20230;-31
2023/03/21 05:24:13;;;;;;;10.60;5.43;;;13.60;99.90;;;;;;5044642;28;20215;-30
2023/03/21 05:26:49;;;;;;;10.27;5.50;;;13.60;99.90;;;;;;5046558;28;20200;-30
2023/03/21 05:29:20;;;;;;;12.57;4.97;;;13.60;99.90;;;;;;5046038;28;20658;-31
2023/03/21 05:31:47;;;;;;;10.33;5.20;;;13.60;99.90;;;;;;5044799;28;20204;-31
2023/03/21 05:34:14;;;;;;;9.23;5.60;;;13.60;99.90;;;;;;5049943;28;20196;-32
2023/03/21 05:36:42;;;;;;;12.17;5.77;;;13.60;99.90;;;;;;5048439;28;20196;-31
2023/03/21 05:39:11;;;;;;;10.30;5.30;;;13.60;99.90;;;;;;5049522;28;20663;-31
2023/03/21 05:41:38;;;;;;;11.87;5.47;;;13.70;99.90;;;;;;5049848;28;20290;-31
2023/03/21 05:44:08;;;;;;;11.60;5.33;;;13.70;99.90;;;;;;5031448;28;20233;-31
2023/03/21 05:46:35;;;;;;;8.57;5.33;;;13.70;99.90;;;;;;5048107;28;20579;-31
2023/03/21 05:49:07;;;;;;;10.50;5.60;;;13.60;99.90;;;;;;5048366;28;20200;-31
2023/03/21 05:51:34;;;;;;;10.83;5.43;;;13.60;99.90;;;;;;5031809;28;20204;-31
2023/03/21 05:54:03;;;;;;;13.47;4.90;;;13.70;99.90;;;;;;5049466;28;20604;-31
2023/03/21 05:56:33;;;;;;;12.73;5.53;;;13.70;99.90;;;;;;5031688;28;20309;-31
2023/03/21 05:59:00;;;;;;;10.13;5.80;;;13.70;99.90;;;;;;5049629;28;20630;-31
2023/03/21 06:01:32;;;;;;;11.13;5.03;;;13.70;99.90;;;;;;5049810;28;20246;-31
2023/03/21 06:03:59;;;;;;;8.10;4.70;;;13.70;99.90;;;;;;5047884;28;20263;-31
2023/03/21 06:06:29;;;;;;;8.50;4.93;;;13.70;99.90;;;;;;5049305;28;20192;-30
2023/03/21 06:08:56;;;;;;;9.57;5.00;;;13.70;99.90;;;;;;5049337;28;20310;-31
2023/03/21 06:11:33;;;;;;;10.63;5.00;;;13.70;99.90;;;;;;5047999;28;20304;-31
2023/03/21 06:14:05;;;;;;;9.67;4.83;;;13.70;99.90;;;;;;5048074;28;20235;-31
2023/03/21 06:16:32;;;;;;;10.10;5.13;;;13.70;99.90;;;;;;5049372;28;20199;-31
2023/03/21 06:19:01;;;;;;;9.77;4.80;;;13.70;99.90;;;;;;5047737;28;20293;-31
2023/03/21 06:21:28;;;;;;;6.57;4.07;;;13.70;99.90;;;;;;5049178;28;20219;-31
2023/03/21 06:24:03;;;;;;;12.43;4.93;;;13.70;99.90;;;;;;5047735;28;20710;-31
2023/03/21 06:26:35;;;;;;;10.50;4.97;;;13.70;99.90;;;;;;5047917;28;20797;-30
2023/03/21 06:29:03;;;;;;;10.33;4.97;;;13.70;99.90;;;;;;5048577;28;20799;-30
2023/03/21 06:31:35;;;;;;;14.83;5.40;;;13.70;99.90;;;;;;5048635;28;20210;-31
2023/03/21 06:34:02;;;;;;;11.87;4.60;;;13.70;99.90;;;;;;5049176;28;20240;-31
2023/03/21 06:36:29;;;;;;;11.83;5.03;;;13.70;99.90;;;;;;5047591;28;20604;-31
2023/03/21 06:38:56;;;;;;;9.57;4.17;;;13.80;99.90;;;;;;5046978;28;20200;-31
2023/03/21 06:41:23;;;;;;;16.10;4.73;;;13.80;99.90;;;;;;5048604;28;20303;-32
2023/03/21 06:43:53;;;;;;;12.07;4.37;;;13.80;99.90;;;;;;5029811;28;20222;-31
2023/03/21 06:46:22;;;;;;;12.87;5.57;;;13.80;99.90;;;;;;5047160;28;20215;-31
2023/03/21 06:48:49;;;;;;;8.00;3.90;;;13.80;99.90;;;;;;5046589;28;20204;-32
2023/03/21 06:51:16;;;;;;;9.93;4.60;;;13.80;99.90;;;;;;5046917;28;20207;-31
2023/03/21 06:53:49;;;;;;;9.97;4.03;;;13.80;99.90;;;;;;5048234;28;20319;-31
2023/03/21 06:56:16;;;;;;;17.43;5.90;;;13.80;99.90;;;;;;5046791;28;20243;-33
2023/03/21 06:58:43;;;;;;;22.37;5.03;;;13.80;99.90;;;;;;5048665;28;20295;-33
2023/03/21 07:01:11;;;;;;;13.40;4.70;;;13.80;99.90;;;;;;5047040;28;20231;-36
2023/03/21 07:03:39;;;;;;;12.47;4.80;;;13.80;99.90;;;;;;5048321;28;20251;-34
2023/03/21 07:06:10;;;;;;;15.10;5.20;;;13.80;99.90;;;;;;5046749;28;20307;-31
2023/03/21 07:08:41;;;;;;;19.10;5.33;;;13.80;99.90;;;;;;5048020;28;20212;-34
2023/03/21 07:11:08;;;;;;;14.07;4.60;;;13.80;99.90;;;;;;5048193;28;20208;-32
2023/03/21 07:13:40;;;;;;;16.40;4.97;;;13.80;99.90;;;;;;5048269;28;20661;-31
2023/03/21 07:16:13;;;;;;;10.97;4.63;;;13.80;99.90;;;;;;5048065;28;20300;-31
2023/03/21 07:18:41;;;;;;;15.10;4.50;;;13.80;99.90;;;;;;5047968;28;20731;-31
2023/03/21 07:21:11;;;;;;;10.80;4.40;;;13.80;99.90;;;;;;5047714;28;20200;-32
2023/03/21 07:23:40;;;;;;;10.73;3.50;;;13.80;99.90;;;;;;5046306;28;20232;-32
2023/03/21 07:26:14;;;;;;;10.47;3.90;;;13.80;99.90;;;;;;5047300;28;20287;-32
2023/03/21 07:28:44;;;;;;;9.10;3.53;;;13.80;99.90;;;;;;5047353;28;20204;-32
2023/03/21 07:31:15;;;;;;;6.30;3.50;;;13.80;99.90;;;;;;5047624;28;20250;-31
2023/03/21 07:33:42;;;;;;;9.47;3.60;;;13.80;99.90;;;;;;5047683;28;20693;-31
2023/03/21 07:36:14;;;;;;;6.67;3.60;;;13.80;99.90;;;;;;5046435;28;20674;-32
2023/03/21 07:38:43;;;;;;;5.67;3.10;;;13.80;99.90;;;;;;5046289;28;20218;-32
2023/03/21 07:41:12;;;;;;;7.97;3.57;;;13.80;99.90;;;;;;5047377;28;20285;-31
2023/03/21 07:43:40;;;;;;;5.87;2.87;;;13.80;99.90;;;;;;5047252;28;20223;-31
2023/03/21 07:46:07;;;;;;;8.10;3.13;;;13.80;99.90;;;;;;5047430;28;20299;-32
2023/03/21 07:48:34;;;;;;;6.70;3.00;;;13.80;99.90;;;;;;5029983;28;20235;-32
2023/03/21 07:51:01;;;;;;;6.47;3.00;;;13.80;99.90;;;;;;5047117;28;20744;-32
2023/03/21 07:53:31;;;;;;;8.07;3.30;;;13.80;99.90;;;;;;5047195;28;20246;-32
2023/03/21 07:55:58;;;;;;;5.43;2.33;;;13.90;99.90;;;;;;5047215;28;20227;-31
2023/03/21 07:58:27;;;;;;;7.30;3.17;;;13.90;99.90;;;;;;5046945;28;20205;-32
2023/03/21 08:01:00;;;;;;;6.77;2.83;;;13.90;99.90;;;;;;5046858;28;20204;-31
2023/03/21 08:03:32;;;;;;;5.13;2.93;;;13.90;99.90;;;;;;5047155;28;20739;-32
2023/03/21 08:06:01;;;;;;;10.47;2.90;;;13.90;99.90;;;;;;5045588;28;20299;-31
2023/03/21 08:08:29;;;;;;;7.73;3.53;;;14.00;99.90;;;;;;5046833;28;20219;-32
2023/03/21 08:10:58;;;;;;;6.57;2.83;;;14.00;99.90;;;;;;5046754;28;20204;-31
2023/03/21 08:13:30;;;;;;;8.10;3.00;;;14.00;99.90;;;;;;5045581;28;20196;-31
2023/03/21 08:16:02;;;;;;;11.97;3.30;;;14.10;99.90;;;;;;5047056;28;20247;-31
2023/03/21 08:18:32;;;;;;;8.20;3.10;;;14.10;99.90;;;;;;5045276;28;20205;-32
2023/03/21 08:20:59;;;;;;;5.90;3.03;;;14.20;99.90;;;;;;5045224;28;20200;-32
2023/03/21 08:23:29;;;;;;;18.83;4.30;;;14.20;99.90;;;;;;5046205;28;20224;-32
2023/03/21 08:25:58;;;;;;;9.20;3.47;;;14.20;99.90;;;;;;5046654;28;20214;-31
2023/03/21 08:28:26;;;;;;;19.97;5.40;;;14.20;99.90;;;;;;5045495;28;20299;-31
2023/03/21 08:30:55;;;;;;;11.03;3.73;;;14.20;99.90;;;;;;5046625;28;20276;-31
2023/03/21 08:33:26;;;;;;;22.27;5.50;;;14.20;99.90;;;;;;5047008;28;20213;-32
2023/03/21 08:35:53;;;;;;;16.20;3.97;;;14.20;99.90;;;;;;5028566;28;20215;-31
2023/03/21 08:38:23;;;;;;;34.43;7.23;;;14.20;99.90;;;;;;5046343;28;20223;-31
2023/03/21 08:40:50;;;;;;;17.33;4.27;;;14.20;99.90;;;;;;5046576;28;20293;-32
2023/03/21 08:43:18;;;;;;;10.07;3.80;;;14.20;99.90;;;;;;5045067;28;20234;-32
2023/03/21 08:45:45;;;;;;;13.27;4.57;;;14.20;99.90;;;;;;5046293;28;20219;-31
2023/03/21 08:48:14;;;;;;;16.27;4.50;;;14.20;99.90;;;;;;5046337;28;20282;-31
2023/03/21 08:50:42;;;;;;;13.87;4.20;;;14.30;99.90;;;;;;5046002;28;20200;-31
2023/03/21 08:53:10;;;;;;;14.63;4.47;;;14.30;99.90;;;;;;5044450;28;20783;-32
2023/03/21 08:55:37;;;;;;;10.57;4.07;;;14.30;99.90;;;;;;5045044;28;20201;-31
2023/03/21 08:58:05;;;;;;;14.27;4.47;;;14.30;99.90;;;;;;5046176;28;20203;-32
2023/03/21 09:00:35;;;;;;;16.00;4.60;;;14.30;99.90;;;;;;5046409;28;20248;-32
2023/03/21 09:03:03;;;;;;;12.10;3.83;;;14.30;99.90;;;;;;5044622;28;20226;-32
2023/03/21 09:05:31;;;;;;;11.77;4.03;;;14.30;99.90;;;;;;5044849;28;20230;-31
2023/03/21 09:08:02;;;;;;;10.97;4.13;;;14.30;99.90;;;;;;5044237;28;20211;-32
2023/03/21 09:10:34;;;;;;;18.57;4.70;;;14.30;99.90;;;;;;5044452;28;20586;-31
2023/03/21 09:13:04;;;;;;;11.57;4.60;;;14.40;99.90;;;;;;5044353;28;20196;-32
2023/03/21 09:15:34;;;;;;;9.43;4.00;;;14.40;99.90;;;;;;5044585;28;20231;-32
2023/03/21 09:18:11;;;;;;;9.17;4.20;;;14.40;99.90;;;;;;5043853;28;20215;-32
2023/03/21 09:20:41;;;;;;;10.00;4.30;;;14.50;99.90;;;;;;5045295;28;20203;-32
2023/03/21 09:23:12;;;;;;;12.57;4.07;;;14.50;99.90;;;;;;5045172;28;20236;-32
2023/03/21 09:25:41;;;;;;;40.33;7.17;;;14.50;99.90;;;;;;5043974;28;20204;-32
2023/03/21 09:28:12;;;;;;;35.27;7.87;;;14.50;99.90;;;;;;5044098;28;20209;-32
2023/03/21 09:30:39;;;;;;;31.70;7.03;;;14.60;99.90;;;;;;5045333;28;20678;-32
2023/03/21 09:33:11;;;;;;;12.30;4.53;;;14.60;99.90;;;;;;5045392;28;20215;-31
2023/03/21 09:35:41;;;;;;;19.33;5.10;;;14.70;99.90;;;;;;5045622;28;20204;-31
2023/03/21 09:38:11;;;;;;;9.53;3.70;;;14.80;99.90;;;;;;5045455;28;20212;-32
2023/03/21 09:41:07;;;;;;;10.07;3.87;;;14.80;99.90;;;;;;5043710;28;20241;-32
2023/03/21 09:44:04;;;;;;;8.10;3.30;;;14.80;99.90;;;;;;5043847;28;20447;-32
2023/03/21 09:46:41;;;;;;;11.07;4.27;;;14.90;99.90;;;;;;5043604;28;20689;-32
2023/03/21 09:49:15;;;;;;;15.00;4.30;;;15.00;99.90;;;;;;5043524;28;20273;-32
2023/03/21 09:51:50;;;;;;;13.43;4.77;;;15.00;99.90;;;;;;5043430;28;20193;-32
2023/03/21 09:54:47;;;;;;;20.23;5.17;;;15.00;99.90;;;;;;5042932;28;20281;-32
2023/03/21 09:57:23;;;;;;;22.60;5.60;;;15.10;99.90;;;;;;5027298;28;20204;-32
2023/03/21 09:59:53;;;;;;;12.50;4.40;;;15.10;99.90;;;;;;5045047;28;20242;-32
2023/03/21 10:02:37;;;;;;;27.37;5.27;;;15.10;99.90;;;;;;5045140;28;20295;-32
2023/03/21 10:05:19;;;;;;;29.13;5.87;;;15.10;99.90;;;;;;5045004;28;20220;-32
2023/03/21 10:08:03;;;;;;;11.10;4.30;;;15.10;99.90;;;;;;5043116;28;20214;-32
2023/03/21 10:10:48;;;;;;;9.53;3.90;;;15.20;99.90;;;;;;5044755;28;20196;-33
2023/03/21 10:13:29;;;;;;;35.73;5.93;;;15.20;99.90;;;;;;5043271;28;20295;-32
2023/03/21 10:16:05;;;;;;;15.70;4.40;;;15.20;99.90;;;;;;5043137;28;20291;-32
2023/03/21 10:18:33;;;;;;;8.47;3.80;;;15.20;99.90;;;;;;5044899;28;20303;-32
2023/03/21 10:21:06;;;;;;;15.30;4.10;;;15.30;99.90;;;;;;5048761;28;20748;-32
2023/03/21 10:23:34;;;;;;;19.35;4.07;;;15.30;99.90;;;;;;5048443;28;20814;-32
2023/03/21 10:26:06;;;;;;;25.03;5.40;;;15.30;99.90;;;;;;5048760;28;20220;-32
2023/03/21 10:28:39;;;;;;;10.43;3.57;;;15.40;99.90;;;;;;5047033;28;20292;-32
2023/03/21 10:31:27;;;;;;;8.23;3.50;;;15.40;99.90;;;;;;5063576;28;20200;-32
2023/03/21 10:34:00;;;;;;;18.50;4.03;;;15.50;99.90;;;;;;5048054;28;20212;-32
2023/03/21 10:36:30;;;;;;;11.63;3.60;;;15.50;99.90;;;;;;5048339;28;20192;-32
2023/03/21 10:39:50;;;;;;;16.90;4.10;;;15.50;99.90;;;;;;5048121;28;20208;-32
2023/03/21 10:42:31;;;;;;;14.83;4.47;;;15.50;99.90;;;;;;5015718;28;20307;-32
2023/03/21 10:45:01;;;;;;;18.13;4.95;;;15.50;99.90;;;;;;5048734;28;20596;-32
2023/03/21 10:47:35;;;;;;;17.80;4.57;;;15.50;99.90;;;;;;5046723;28;20196;-32
2023/03/21 10:50:10;;;;;;;11.77;4.10;;;15.60;99.90;;;;;;5048772;28;20282;-32
2023/03/21 10:52:54;;;;;;;19.70;4.50;;;15.60;99.90;;;;;;5047147;28;20200;-32
2023/03/21 10:55:30;;;;;;;14.07;4.43;;;15.60;99.90;;;;;;5048489;28;20209;-32
2023/03/21 10:58:17;;;;;;;8.43;3.20;;;15.60;99.90;;;;;;5046823;28;20310;-32
2023/03/21 11:00:46;;;;;;;16.10;3.65;;;15.60;99.90;;;;;;5048176;28;20630;-32
2023/03/21 11:03:45;;;;;;;42.07;5.57;;;15.70;99.90;;;;;;5048476;28;20212;-32
2023/03/21 11:06:23;;;;;;;16.00;3.70;;;15.70;99.90;;;;;;5030857;28;20281;-32
2023/03/21 11:09:20;;;;;;;14.63;3.93;;;15.80;99.90;;;;;;5047997;28;20239;-32
2023/03/21 11:12:03;;;;;;;11.38;3.92;;;15.80;99.90;;;;;;5046550;28;20691;-32
2023/03/21 11:14:41;;;;;;;19.27;4.38;;;15.90;99.90;;;;;;5047030;28;20451;-32
2023/03/21 11:17:17;;;;;;;17.47;4.10;;;15.90;99.90;;;;;;5047851;28;20222;-32
2023/03/21 11:19:56;;;;;;;11.13;2.93;;;15.90;99.90;;;;;;5047765;28;20671;-32
2023/03/21 11:22:27;;;;;;;9.13;3.57;;;16.00;99.90;;;;;;5046318;28;20643;-32
2023/03/21 11:25:00;;;;;;;13.77;3.97;;;16.00;99.90;;;;;;5046244;28;20278;-32
2023/03/21 11:27:33;;;;;;;30.13;5.20;;;16.10;99.90;;;;;;5047959;28;20314;-32
2023/03/21 11:30:04;;;;;;;50.73;7.50;;;16.10;99.90;;;;;;5047624;28;20220;-32
2023/03/21 11:32:43;;;;;;;36.15;6.72;;;16.20;99.90;;;;;;5045941;28;20726;-32
2023/03/21 11:35:19;;;;;;;25.83;4.70;;;16.30;99.90;;;;;;5047795;28;20554;-32
2023/03/21 11:37:52;;;;;;;11.13;3.60;;;16.40;99.90;;;;;;5046297;28;20192;-31
2023/03/21 11:40:24;;;;;;;10.03;3.73;;;16.40;99.90;;;;;;5047859;28;20485;-32
2023/03/21 11:42:56;;;;;;;13.27;3.73;;;16.50;99.90;;;;;;5047051;28;20216;-32
2023/03/21 11:45:23;;;;;;;12.17;3.67;;;16.50;99.90;;;;;;5047024;28;20242;-32
2023/03/21 11:47:53;;;;;;;15.27;3.47;;;16.60;99.90;;;;;;5045321;28;20754;-32
2023/03/21 11:50:31;;;;;;;74.10;11.50;;;16.60;99.90;;;;;;5045735;28;20195;-32
2023/03/21 11:53:28;;;;;;;39.72;6.93;;;16.60;99.90;;;;;;5045179;28;20211;-32
2023/03/21 11:56:23;;;;;;;28.17;4.80;;;16.60;99.90;;;;;;5045072;28;20753;-32
2023/03/21 11:59:09;;;;;;;10.98;3.58;;;16.60;99.90;;;;;;5045195;28;20197;-32
2023/03/21 12:01:59;;;;;;;8.73;3.33;;;16.60;99.90;;;;;;5046701;28;20208;-32
2023/03/21 12:05:03;;;;;;;13.00;4.20;;;16.50;99.90;;;;;;5045034;28;20223;-32
2023/03/21 12:07:50;;;;;;;45.85;7.13;;;16.50;99.90;;;;;;5044836;28;20495;-32
2023/03/21 12:10:43;;;;;;;29.20;5.32;;;16.40;99.90;;;;;;5045133;28;20244;-32
2023/03/21 12:13:18;;;;;;;10.57;3.97;;;16.40;99.90;;;;;;5044807;28;20277;-32
2023/03/21 12:16:24;;;;;;;14.05;4.13;;;16.40;99.90;;;;;;5046340;28;20215;-32
2023/03/21 12:18:59;;;;;;;20.98;5.38;;;16.40;99.90;;;;;;5045950;28;20223;-32
2023/03/21 12:21:45;;;;;;;11.10;3.43;;;16.40;99.90;;;;;;5046069;28;20196;-33
2023/03/21 12:24:44;;;;;;;7.47;3.17;;;16.40;99.90;;;;;;5046311;28;20314;-32
2023/03/21 12:27:36;;;;;;;12.07;3.55;;;16.40;99.90;;;;;;5046187;28;20304;-32
2023/03/21 12:30:26;;;;;;;17.05;4.85;;;16.50;99.90;;;;;;5044709;28;20220;-32
2023/03/21 12:33:17;;;;;;;7.30;3.65;;;16.50;99.90;;;;;;5046549;28;20640;-32
2023/03/21 12:35:56;;;;;;;13.15;4.70;;;16.60;99.90;;;;;;5045447;28;20306;-32
2023/03/21 12:38:33;;;;;;;10.63;4.30;;;16.60;99.90;;;;;;5046224;28;20219;-32
2023/03/21 12:41:10;;;;;;;8.03;4.53;;;16.70;99.90;;;;;;5045952;28;20262;-32
2023/03/21 12:44:04;;;;;;;6.97;4.80;;;16.70;99.90;;;;;;5045467;28;20204;-31
2023/03/21 12:46:36;;;;;;;6.88;4.50;;;16.80;99.90;;;;;;5045697;28;20211;-32
2023/03/21 12:49:09;;;;;;;12.13;5.68;;;16.80;99.90;;;;;;5044332;28;20648;-31
2023/03/21 12:51:42;;;;;;;17.95;5.53;;;16.80;99.90;;;;;;5044149;28;20227;-31
2023/03/21 12:54:33;;;;;;;15.77;6.10;;;16.90;99.90;;;;;;5045415;28;20290;-31
2023/03/21 12:57:20;;;;;;;15.85;5.80;;;16.90;99.90;;;;;;5044016;28;20206;-33
2023/03/21 13:00:09;;;;;;;16.95;4.78;;;17.00;99.90;;;;;;5043822;28;20277;-31
2023/03/21 13:02:44;;;;;;;17.63;5.43;;;17.00;99.90;;;;;;5045477;28;20294;-32
2023/03/21 13:05:29;;;;;;;11.10;4.20;;;17.10;99.90;;;;;;5045357;28;20227;-32
2023/03/21 13:08:02;;;;;;;26.17;5.30;;;17.20;99.90;;;;;;5045358;28;20307;-31
2023/03/21 13:10:37;;;;;;;29.40;6.05;;;17.10;99.90;;;;;;5044136;28;20207;-32
2023/03/21 13:13:26;;;;;;;22.45;4.30;;;17.20;99.90;;;;;;5045500;28;20686;-31
2023/03/21 13:16:05;;;;;;;14.65;3.92;;;17.30;99.90;;;;;;5045434;28;20216;-31
2023/03/21 13:18:54;;;;;;;9.95;3.47;;;17.30;99.90;;;;;;5043902;28;20200;-32
2023/03/21 13:21:36;;;;;;;10.82;3.95;;;17.40;99.90;;;;;;5045652;28;20212;-31
2023/03/21 13:24:23;;;;;;;15.18;3.95;;;17.40;99.90;;;;;;5044031;28;20251;-34